createdAt,value
2023-02-12T00:00:51.411Z,20.60
2023-02-12T00:03:39.571Z,22.50
2023-02-12T00:06:08.234Z,20.00
2023-02-12T00:08:36.159Z,21.20
2023-02-12T00:11:16.149Z,22.30
2023-02-12T00:13:43.459Z,19.30
2023-02-12T00:16:15.172Z,27.00
2023-02-12T00:18:42.718Z,23.80
2023-02-12T00:21:09.620Z,22.20
2023-02-12T00:23:38.533Z,18.10
2023-02-12T00:26:14.790Z,25.90
2023-02-12T00:28:44.472Z,23.90
2023-02-12T00:31:18.314Z,25.90
2023-02-12T00:33:45.027Z,22.00
2023-02-12T00:36:19.045Z,20.10
2023-02-12T00:38:46.515Z,18.00
2023-02-12T00:41:13.166Z,23.10
2023-02-12T00:43:39.840Z,20.20
2023-02-12T00:46:07.432Z,19.10
2023-02-12T00:48:35.616Z,21.00
2023-02-12T00:51:03.610Z,19.90
2023-02-12T00:53:31.393Z,17.80
2023-02-12T00:55:58.868Z,21.90
2023-02-12T00:58:25.605Z,23.40
2023-02-12T01:00:53.569Z,24.70
2023-02-12T01:03:20.539Z,25.00
2023-02-12T01:05:47.427Z,25.70
2023-02-12T01:08:15.919Z,26.00
2023-02-12T01:10:43.707Z,24.30
2023-02-12T01:13:13.679Z,31.00
2023-02-12T01:15:42.529Z,25.00
2023-02-12T01:18:10.361Z,21.50
2023-02-12T01:20:37.032Z,25.60
2023-02-12T01:23:06.410Z,17.70
2023-02-12T01:25:33.067Z,27.40
2023-02-12T01:28:00.117Z,33.60
2023-02-12T01:30:26.795Z,41.80
2023-02-12T01:32:54.975Z,35.50
2023-02-12T01:35:21.752Z,43.40
2023-02-12T01:37:48.328Z,40.20
2023-02-12T01:40:17.449Z,31.00
2023-02-12T01:42:44.059Z,34.30
2023-02-12T01:45:13.684Z,30.00
2023-02-12T01:47:42.442Z,30.70
2023-02-12T01:50:15.876Z,28.50
2023-02-12T01:52:47.637Z,27.90
2023-02-12T01:55:14.618Z,31.30
2023-02-12T01:57:48.284Z,28.00
2023-02-12T02:00:22.972Z,28.70
2023-02-12T02:02:57.442Z,30.90
2023-02-12T02:05:57.776Z,28.90
2023-02-12T02:08:25.061Z,28.90
2023-02-12T02:10:51.755Z,25.20
2023-02-12T02:13:36.657Z,26.90
2023-02-12T02:16:14.652Z,23.40
2023-02-12T02:18:55.388Z,23.00
2023-02-12T02:21:47.595Z,25.60
2023-02-12T02:24:42.356Z,21.70
2023-02-12T02:27:42.046Z,31.10
2023-02-12T02:31:15.549Z,26.30
2023-02-12T02:34:14.088Z,27.40
2023-02-12T02:37:04.750Z,28.00
2023-02-12T02:39:39.117Z,29.20
2023-02-12T02:42:38.119Z,35.90
2023-02-12T02:45:11.954Z,30.10
2023-02-12T02:47:51.468Z,29.40
2023-02-12T02:50:24.701Z,24.90
2023-02-12T02:53:12.082Z,24.80
2023-02-12T02:55:45.262Z,30.70
2023-02-12T02:58:20.513Z,26.20
2023-02-12T03:01:06.894Z,25.10
2023-02-12T03:04:49.376Z,29.10
2023-02-12T03:07:24.252Z,33.30
2023-02-12T03:10:10.797Z,29.70
2023-02-12T03:13:03.026Z,34.50
2023-02-12T03:15:37.017Z,33.30
2023-02-12T03:18:09.662Z,32.20
2023-02-12T03:23:25.266Z,38.50
2023-02-12T03:26:06.257Z,34.40
2023-02-12T03:28:35.731Z,33.90
2023-02-12T03:31:29.632Z,35.70
2023-02-12T03:34:45.440Z,42.90
2023-02-12T03:37:22.247Z,33.70
2023-02-12T03:40:40.707Z,39.10
2023-02-12T03:43:27.207Z,35.80
2023-02-12T03:46:10.599Z,42.00
2023-02-12T03:48:45.840Z,43.20
2023-02-12T03:51:34.022Z,45.30
2023-02-12T03:54:01.864Z,44.00
2023-02-12T03:56:35.792Z,45.00
2023-02-12T03:59:04.518Z,49.20
2023-02-12T04:01:33.336Z,46.40
2023-02-12T04:04:06.198Z,44.10
2023-02-12T04:09:05.202Z,40.20
2023-02-12T04:11:53.468Z,43.10
2023-02-12T04:14:26.824Z,41.60
2023-02-12T04:17:08.858Z,37.80
2023-02-12T04:20:21.516Z,40.50
2023-02-12T04:23:43.358Z,40.20
2023-02-12T04:26:23.322Z,33.90
2023-02-12T04:29:23.695Z,41.80
2023-02-12T04:32:04.061Z,36.00
2023-02-12T04:34:56.702Z,35.00
2023-02-12T04:37:45.519Z,37.70
2023-02-12T04:40:14.928Z,35.30
2023-02-12T04:42:47.532Z,35.60
2023-02-12T04:45:29.729Z,40.20
2023-02-12T04:47:56.787Z,37.70
2023-02-12T04:50:23.541Z,35.20
2023-02-12T04:52:50.164Z,37.60
2023-02-12T04:55:16.930Z,33.80
2023-02-12T04:57:43.769Z,40.00
2023-02-12T05:00:14.246Z,37.30
2023-02-12T05:02:40.810Z,33.80
2023-02-12T05:05:07.817Z,38.70
2023-02-12T05:07:34.574Z,35.50
2023-02-12T05:10:01.278Z,33.70
2023-02-12T05:12:27.948Z,32.40
2023-02-12T05:14:54.584Z,31.80
2023-02-12T05:17:23.068Z,30.90
2023-02-12T05:19:49.968Z,33.00
2023-02-12T05:22:17.063Z,31.50
2023-02-12T05:24:43.952Z,26.90
2023-02-12T05:27:10.790Z,33.70
2023-02-12T05:29:37.477Z,27.00
2023-02-12T05:32:06.335Z,31.90
2023-02-12T05:34:33.587Z,27.70
2023-02-12T05:37:00.805Z,25.60
2023-02-12T05:39:27.761Z,27.80
2023-02-12T05:41:54.357Z,26.90
2023-02-12T05:44:21.030Z,31.00
2023-02-12T05:46:47.882Z,29.90
2023-02-12T05:49:14.635Z,30.20
2023-02-12T05:51:41.266Z,26.80
2023-02-12T05:54:09.343Z,35.20
2023-02-12T05:56:45.761Z,31.10
2023-02-12T05:59:19.706Z,27.50
2023-02-12T06:01:48.761Z,27.20
2023-02-12T06:04:21.067Z,27.10
2023-02-12T06:06:47.674Z,22.90
2023-02-12T06:09:14.489Z,28.30
2023-02-12T06:11:41.779Z,31.30
2023-02-12T06:14:12.918Z,28.30
2023-02-12T06:16:39.631Z,29.20
2023-02-12T06:19:06.968Z,32.40
2023-02-12T06:21:33.955Z,28.90
2023-02-12T06:24:00.613Z,26.70
2023-02-12T06:26:27.480Z,28.40
2023-02-12T06:28:54.086Z,28.80
2023-02-12T06:31:25.590Z,26.40
2023-02-12T06:33:54.388Z,28.60
2023-02-12T06:36:21.877Z,30.40
2023-02-12T06:38:48.865Z,28.50
2023-02-12T06:41:16.324Z,31.90
2023-02-12T06:43:43.660Z,29.60
2023-02-12T06:46:10.664Z,26.20
2023-02-12T06:48:37.575Z,31.20
2023-02-12T06:51:13.115Z,30.00
2023-02-12T06:53:40.064Z,27.70
2023-02-12T06:56:12.542Z,31.40
2023-02-12T06:59:00.327Z,25.50
2023-02-12T07:01:30.869Z,19.30
2023-02-12T07:04:01.616Z,28.10
2023-02-12T07:06:30.644Z,26.50
2023-02-12T07:08:58.047Z,30.50
2023-02-12T07:11:37.522Z,24.20
2023-02-12T07:14:06.145Z,30.20
2023-02-12T07:16:32.849Z,34.20
2023-02-12T07:18:59.866Z,40.10
2023-02-12T07:21:26.608Z,63.70
2023-02-12T07:23:55.504Z,84.10
2023-02-12T07:26:22.851Z,82.50
2023-02-12T07:31:32.090Z,35.30
2023-02-12T07:34:01.850Z,32.40
2023-02-12T07:36:31.624Z,37.20
2023-02-12T07:39:04.397Z,36.10
2023-02-12T07:41:35.105Z,36.60
2023-02-12T07:44:06.817Z,64.50
2023-02-12T07:46:40.384Z,51.90
2023-02-12T07:49:10.406Z,48.90
2023-02-12T07:51:37.779Z,35.60
2023-02-12T07:54:05.349Z,41.30
2023-02-12T07:56:35.623Z,35.80
2023-02-12T07:59:06.588Z,36.40
2023-02-12T08:01:38.935Z,30.80
2023-02-12T08:04:12.719Z,28.30
2023-02-12T08:06:42.797Z,37.30
2023-02-12T08:09:13.336Z,28.30
2023-02-12T08:11:42.180Z,30.00
2023-02-12T08:14:12.315Z,42.80
2023-02-12T08:16:44.128Z,30.00
2023-02-12T08:19:19.495Z,39.80
2023-02-12T08:21:52.048Z,33.80
2023-02-12T08:24:18.906Z,37.70
2023-02-12T08:26:46.901Z,37.10
2023-02-12T08:29:18.693Z,38.50
2023-02-12T08:31:48.617Z,56.90
2023-02-12T08:34:22.316Z,52.10
2023-02-12T08:36:51.304Z,46.30
2023-02-12T08:39:18.280Z,43.70
2023-02-12T08:41:46.133Z,41.30
2023-02-12T08:44:13.258Z,47.00
2023-02-12T08:46:47.643Z,46.80
2023-02-12T08:49:26.163Z,45.30
2023-02-12T08:51:55.505Z,53.50
2023-02-12T08:54:25.335Z,54.10
2023-02-12T08:57:00.859Z,49.20
2023-02-12T08:59:28.259Z,63.50
2023-02-12T09:01:55.054Z,39.60
2023-02-12T09:04:25.313Z,38.80
2023-02-12T09:06:52.708Z,34.70
2023-02-12T09:09:21.139Z,33.40
2023-02-12T09:11:48.797Z,44.10
2023-02-12T09:14:18.265Z,32.80
2023-02-12T09:16:45.391Z,41.60
2023-02-12T09:19:13.973Z,33.70
2023-02-12T09:21:41.254Z,47.60
2023-02-12T09:24:08.454Z,41.50
2023-02-12T09:26:35.347Z,35.00
2023-02-12T09:29:03.981Z,39.40
2023-02-12T09:31:32.537Z,37.80
2023-02-12T09:34:06.125Z,36.30
2023-02-12T09:36:33.696Z,34.50
2023-02-12T09:39:00.589Z,37.20
2023-02-12T09:42:07.482Z,39.80
2023-02-12T09:45:02.928Z,40.00
2023-02-12T09:48:06.967Z,30.80
2023-02-12T09:50:47.629Z,40.50
2023-02-12T09:53:22.165Z,34.60
2023-02-12T09:55:49.181Z,41.80
2023-02-12T09:58:47.185Z,44.70
2023-02-12T10:01:20.719Z,38.30
2023-02-12T10:03:50.088Z,37.30
2023-02-12T10:06:31.434Z,41.40
2023-02-12T10:09:20.094Z,46.00
2023-02-12T10:12:08.789Z,51.20
2023-02-12T10:14:44.411Z,45.90
2023-02-12T10:17:49.651Z,51.50
2023-02-12T10:20:34.602Z,54.20
2023-02-12T10:23:23.266Z,57.70
2023-02-12T10:25:59.538Z,47.00
2023-02-12T10:28:31.246Z,57.20
2023-02-12T10:31:16.606Z,56.50
2023-02-12T10:33:49.149Z,48.70
2023-02-12T10:36:47.221Z,48.70
2023-02-12T10:39:22.824Z,40.80
2023-02-12T10:42:14.489Z,41.00
2023-02-12T10:44:41.220Z,49.00
2023-02-12T10:47:21.020Z,51.40
2023-02-12T10:49:59.684Z,52.00
2023-02-12T10:52:45.979Z,51.30
2023-02-12T10:55:48.690Z,61.50
2023-02-12T10:58:24.438Z,52.80
2023-02-12T11:00:59.348Z,60.70
2023-02-12T11:03:36.919Z,55.80
2023-02-12T11:06:31.723Z,55.40
2023-02-12T11:08:58.791Z,58.00
2023-02-12T11:11:30.674Z,51.00
2023-02-12T11:14:18.181Z,44.50
2023-02-12T11:16:52.939Z,40.90
2023-02-12T11:19:28.764Z,39.50
2023-02-12T11:22:18.238Z,32.30
2023-02-12T11:24:46.485Z,26.20
2023-02-12T11:27:23.084Z,33.60
2023-02-12T11:30:12.630Z,41.50
2023-02-12T11:32:39.657Z,34.20
2023-02-12T11:35:23.367Z,32.10
2023-02-12T11:37:53.125Z,26.80
2023-02-12T11:40:26.866Z,26.80
2023-02-12T11:43:00.367Z,22.80
2023-02-12T11:45:34.775Z,26.80
2023-02-12T11:48:01.679Z,19.90
2023-02-12T11:50:32.634Z,29.80
2023-02-12T11:53:08.851Z,17.90
2023-02-12T11:55:39.778Z,25.40
2023-02-12T11:58:12.465Z,23.70
2023-02-12T12:03:26.613Z,28.30
2023-02-12T12:06:02.616Z,22.90
2023-02-12T12:08:40.351Z,22.90
2023-02-12T12:11:45.717Z,24.40
2023-02-12T12:14:32.181Z,22.50
2023-02-12T12:17:26.788Z,20.70
2023-02-12T12:20:05.916Z,19.50
2023-02-12T12:23:05.053Z,23.50
2023-02-12T12:25:42.011Z,19.10
2023-02-12T12:28:32.278Z,21.90
2023-02-12T12:31:22.254Z,24.50
2023-02-12T12:34:21.416Z,27.80
2023-02-12T12:37:03.673Z,24.10
2023-02-12T12:39:54.904Z,22.80
2023-02-12T12:42:45.973Z,22.80
2023-02-12T12:45:39.101Z,23.30
2023-02-12T12:51:23.207Z,22.80
2023-02-12T12:54:23.310Z,28.00
2023-02-12T12:57:36.620Z,26.90
2023-02-12T13:00:25.495Z,27.50
2023-02-12T13:03:13.960Z,24.20
2023-02-12T13:06:02.747Z,26.40
2023-02-12T13:09:12.354Z,26.90
2023-02-12T13:12:10.005Z,26.50
2023-02-12T13:14:47.298Z,24.70
2023-02-12T13:17:24.958Z,29.90
2023-02-12T13:20:06.798Z,32.80
2023-02-12T13:23:10.431Z,27.80
2023-02-12T13:28:50.551Z,33.20
2023-02-12T13:31:33.043Z,30.70
2023-02-12T13:34:12.870Z,29.10
2023-02-12T13:36:41.352Z,32.40
2023-02-12T13:39:24.897Z,38.90
2023-02-12T13:42:07.062Z,29.10
2023-02-12T13:44:42.270Z,35.20
2023-02-12T13:47:31.716Z,34.30
2023-02-12T13:50:20.322Z,32.40
2023-02-12T13:53:11.822Z,33.50
2023-02-12T13:56:09.147Z,29.10
2023-02-12T13:58:38.578Z,35.80
2023-02-12T14:01:47.369Z,37.80
2023-02-12T14:04:32.758Z,39.10
2023-02-12T14:07:15.849Z,35.00
2023-02-12T14:12:24.943Z,35.30
2023-02-12T14:15:05.374Z,22.30
2023-02-12T14:17:32.007Z,21.40
2023-02-12T14:20:26.351Z,23.40
2023-02-12T14:23:01.225Z,22.40
2023-02-12T14:25:41.270Z,17.50
2023-02-12T14:28:28.388Z,24.90
2023-02-12T14:31:22.957Z,20.00
2023-02-12T14:33:52.806Z,25.60
2023-02-12T14:36:31.778Z,26.30
2023-02-12T14:39:28.698Z,20.20
2023-02-12T14:42:16.162Z,21.20
2023-02-12T14:44:47.004Z,23.70
2023-02-12T14:47:39.777Z,22.60
2023-02-12T14:50:22.595Z,26.60
2023-02-12T14:53:03.149Z,23.70
2023-02-12T14:55:34.491Z,24.50
2023-02-12T14:58:05.110Z,20.00
2023-02-12T15:00:40.203Z,24.20
2023-02-12T15:03:15.401Z,23.10
2023-02-12T15:06:02.713Z,21.60
2023-02-12T15:08:49.582Z,22.20
2023-02-12T15:11:28.856Z,17.50
2023-02-12T15:14:12.341Z,21.10
2023-02-12T15:17:24.652Z,22.90
2023-02-12T15:20:07.919Z,21.60
2023-02-12T15:22:41.528Z,20.20
2023-02-12T15:25:26.226Z,17.70
2023-02-12T15:28:21.415Z,22.90
2023-02-12T15:30:48.174Z,21.60
2023-02-12T15:33:45.638Z,21.20
2023-02-12T15:36:17.219Z,24.50
2023-02-12T15:38:51.708Z,39.00
2023-02-12T15:41:47.196Z,29.50
2023-02-12T15:44:31.040Z,35.70
2023-02-12T15:47:11.773Z,40.80
2023-02-12T15:49:40.555Z,39.90
2023-02-12T15:52:34.144Z,26.10
2023-02-12T15:55:04.346Z,38.20
2023-02-12T15:57:31.432Z,30.90
2023-02-12T16:00:08.826Z,26.50
2023-02-12T16:02:35.869Z,19.40
2023-02-12T16:05:05.209Z,16.30
2023-02-12T16:07:37.716Z,23.10
2023-02-12T16:10:05.960Z,23.70
2023-02-12T16:12:36.254Z,21.30
2023-02-12T16:15:04.026Z,16.60
2023-02-12T16:17:34.174Z,15.90
2023-02-12T16:20:18.805Z,22.90
2023-02-12T16:22:48.775Z,20.50
2023-02-12T16:25:27.142Z,22.70
2023-02-12T16:28:01.316Z,20.00
2023-02-12T16:30:42.333Z,20.00
2023-02-12T16:33:39.967Z,21.90
2023-02-12T16:36:29.825Z,27.30
2023-02-12T16:39:05.657Z,25.10
2023-02-12T16:41:34.986Z,19.90
2023-02-12T16:44:02.090Z,18.20
2023-02-12T16:46:34.872Z,20.10
2023-02-12T16:49:01.866Z,23.10
2023-02-12T16:51:34.190Z,17.60
2023-02-12T16:54:04.110Z,15.10
2023-02-12T16:56:34.277Z,17.30
2023-02-12T16:59:01.553Z,18.20
2023-02-12T17:01:34.831Z,23.20
2023-02-12T17:04:07.191Z,18.80
2023-02-12T17:06:34.239Z,16.50
2023-02-12T17:09:01.024Z,17.00
2023-02-12T17:11:28.431Z,18.40
2023-02-12T17:13:56.296Z,14.90
2023-02-12T17:16:32.093Z,16.80
2023-02-12T17:19:00.214Z,12.00
2023-02-12T17:21:37.666Z,15.80
2023-02-12T17:24:14.674Z,14.30
2023-02-12T17:26:41.272Z,16.00
2023-02-12T17:29:07.846Z,15.20
2023-02-12T17:31:36.136Z,19.60
2023-02-12T17:34:04.255Z,14.00
2023-02-12T17:36:31.560Z,20.40
2023-02-12T17:38:59.501Z,14.60
2023-02-12T17:41:26.400Z,18.60
2023-02-12T17:43:53.079Z,12.60
2023-02-12T17:46:24.224Z,21.30
2023-02-12T17:48:51.020Z,16.70
2023-02-12T17:51:18.464Z,20.20
2023-02-12T17:53:45.502Z,19.10
2023-02-12T17:56:14.913Z,21.20
2023-02-12T17:58:42.366Z,21.10
2023-02-12T18:01:12.803Z,31.50
2023-02-12T18:03:40.016Z,22.00
2023-02-12T18:06:07.942Z,19.00
2023-02-12T18:08:34.964Z,22.30
2023-02-12T18:11:06.403Z,25.00
2023-02-12T18:13:33.391Z,22.30
2023-02-12T18:16:00.814Z,27.30
2023-02-12T18:18:27.407Z,25.90
2023-02-12T18:20:54.075Z,28.40
2023-02-12T18:23:20.698Z,33.30
2023-02-12T18:25:47.380Z,38.00
2023-02-12T18:28:14.343Z,47.50
2023-02-12T18:30:42.679Z,36.40
2023-02-12T18:33:11.301Z,42.70
2023-02-12T18:35:41.111Z,34.30
2023-02-12T18:38:08.231Z,33.60
2023-02-12T18:40:39.991Z,25.00
2023-02-12T18:43:06.820Z,33.10
2023-02-12T18:45:33.558Z,28.60
2023-02-12T18:48:00.339Z,51.80
2023-02-12T18:50:27.049Z,33.20
2023-02-12T18:52:54.708Z,26.20
2023-02-12T18:55:21.481Z,31.90
2023-02-12T18:57:48.070Z,34.60
2023-02-12T19:00:15.333Z,31.30
2023-02-12T19:02:41.945Z,35.60
2023-02-12T19:05:10.552Z,34.30
2023-02-12T19:07:38.072Z,35.20
2023-02-12T19:10:05.966Z,36.00
2023-02-12T19:12:32.528Z,30.90
2023-02-12T19:14:59.078Z,37.30
2023-02-12T19:17:25.718Z,32.70
2023-02-12T19:19:52.482Z,32.00
2023-02-12T19:22:19.722Z,29.90
2023-02-12T19:24:50.843Z,37.10
2023-02-12T19:27:19.670Z,49.40
2023-02-12T19:29:46.380Z,42.80
2023-02-12T19:32:13.088Z,43.40
2023-02-12T19:34:39.651Z,39.90
2023-02-12T19:37:07.299Z,36.90
2023-02-12T19:39:34.125Z,57.00
2023-02-12T19:42:00.716Z,49.50
2023-02-12T19:44:27.516Z,54.70
2023-02-12T19:46:55.745Z,44.40
2023-02-12T19:49:25.988Z,38.90
2023-02-12T19:51:52.888Z,43.70
2023-02-12T19:54:21.815Z,37.20
2023-02-12T19:56:54.927Z,41.20
2023-02-12T19:59:23.806Z,44.50
2023-02-12T20:01:53.879Z,36.40
2023-02-12T20:04:22.625Z,39.20
2023-02-12T20:06:50.516Z,44.00
2023-02-12T20:09:24.104Z,39.50
2023-02-12T20:11:51.990Z,46.00
2023-02-12T20:14:20.234Z,52.30
2023-02-12T20:16:47.331Z,50.70
2023-02-12T20:19:24.784Z,59.30
2023-02-12T20:21:54.611Z,49.60
2023-02-12T20:24:25.378Z,44.70
2023-02-12T20:26:53.199Z,49.80
2023-02-12T20:29:20.568Z,46.50
2023-02-12T20:31:47.261Z,44.80
2023-02-12T20:34:19.342Z,44.00
2023-02-12T20:36:47.017Z,41.00
2023-02-12T20:39:18.391Z,48.70
2023-02-12T20:41:45.930Z,46.00
2023-02-12T20:44:16.867Z,47.30
2023-02-12T20:46:45.612Z,52.80
2023-02-12T20:49:14.918Z,38.20
2023-02-12T20:51:42.165Z,49.40
2023-02-12T20:54:09.145Z,41.10
2023-02-12T20:56:36.848Z,38.80
2023-02-12T20:59:05.409Z,43.00
2023-02-12T21:01:38.354Z,36.90
2023-02-12T21:04:11.220Z,36.60
2023-02-12T21:06:39.892Z,40.80
2023-02-12T21:09:12.102Z,35.70
2023-02-12T21:11:41.496Z,36.00
2023-02-12T21:14:25.078Z,41.30
2023-02-12T21:16:55.572Z,38.30
2023-02-12T21:19:23.194Z,33.30
2023-02-12T21:21:49.957Z,34.50
2023-02-12T21:24:21.610Z,36.70
2023-02-12T21:26:51.114Z,36.90
2023-02-12T21:29:19.148Z,39.90
2023-02-12T21:31:48.698Z,38.20
2023-02-12T21:34:21.781Z,36.50
2023-02-12T21:36:49.842Z,30.80
2023-02-12T21:39:23.770Z,33.60
2023-02-12T21:41:56.802Z,40.40
2023-02-12T21:44:25.126Z,39.30
2023-02-12T21:46:52.425Z,31.70
2023-02-12T21:49:24.613Z,35.90
2023-02-12T21:51:55.459Z,30.60
2023-02-12T21:54:23.204Z,37.50
2023-02-12T21:56:50.570Z,34.50
2023-02-12T21:59:18.331Z,32.20
2023-02-12T22:01:51.121Z,33.60
2023-02-12T22:06:48.296Z,36.10
2023-02-12T22:09:19.181Z,37.30
2023-02-12T22:11:46.238Z,35.40
2023-02-12T22:14:16.676Z,44.70
2023-02-12T22:16:43.810Z,38.30
2023-02-12T22:19:10.689Z,37.50
2023-02-12T22:21:40.093Z,38.30
2023-02-12T22:24:10.535Z,33.30
2023-02-12T22:26:37.138Z,36.40
2023-02-12T22:29:08.103Z,38.90
2023-02-12T22:31:37.477Z,39.40
2023-02-12T22:34:10.911Z,36.50
2023-02-12T22:36:39.604Z,36.00
2023-02-12T22:39:06.857Z,40.00
2023-02-12T22:41:33.872Z,43.00
2023-02-12T22:44:04.374Z,36.10
2023-02-12T22:46:31.565Z,41.20
2023-02-12T22:48:58.597Z,35.20
2023-02-12T22:51:28.587Z,36.80
2023-02-12T22:53:55.805Z,35.70
2023-02-12T22:56:25.479Z,29.30
2023-02-12T22:59:00.793Z,27.60
2023-02-12T23:01:28.757Z,31.30
2023-02-12T23:03:55.995Z,29.40
2023-02-12T23:06:26.240Z,26.80
2023-02-12T23:08:58.158Z,32.60
2023-02-12T23:11:27.431Z,31.50
2023-02-12T23:13:54.847Z,28.80
2023-02-12T23:16:22.358Z,28.20
2023-02-12T23:18:52.840Z,24.10
2023-02-12T23:21:19.510Z,31.90
2023-02-12T23:23:46.239Z,25.10
2023-02-12T23:26:12.967Z,27.80
2023-02-12T23:28:39.549Z,27.40
2023-02-12T23:31:06.578Z,27.20
2023-02-12T23:33:33.317Z,26.30
2023-02-12T23:36:00.117Z,20.30
2023-02-12T23:38:26.899Z,23.50
2023-02-12T23:40:53.711Z,27.20
2023-02-12T23:43:20.376Z,30.60
2023-02-12T23:45:47.147Z,25.50
2023-02-12T23:48:14.106Z,23.40
2023-02-12T23:50:40.805Z,30.40
2023-02-12T23:53:09.409Z,25.60
2023-02-12T23:55:37.599Z,26.00
2023-02-12T23:58:05.941Z,30.40
